sensor_id;sensor_type;location;lat;lon;timestamp;temperature;humidity
22114;DHT22;11223;49.968;9.062;2023-11-21T00:01:35;8.60;99.90
22114;DHT22;11223;49.968;9.062;2023-11-21T00:04:00;8.60;99.90
22114;DHT22;11223;49.968;9.062;2023-11-21T00:06:26;8.60;99.90
22114;DHT22;11223;49.968;9.062;2023-11-21T00:08:52;8.60;99.90
22114;DHT22;11223;49.968;9.062;2023-11-21T00:11:17;8.60;99.90
22114;DHT22;11223;49.968;9.062;2023-11-21T00:13:43;8.50;99.90
22114;DHT22;11223;49.968;9.062;2023-11-21T00:16:09;8.50;99.90
22114;DHT22;11223;49.968;9.062;2023-11-21T00:18:34;8.50;99.90
22114;DHT22;11223;49.968;9.062;2023-11-21T00:21:01;8.50;99.90
22114;DHT22;11223;49.968;9.062;2023-11-21T00:23:26;8.60;99.90
22114;DHT22;11223;49.968;9.062;2023-11-21T00:25:52;8.50;99.90
22114;DHT22;11223;49.968;9.062;2023-11-21T00:28:17;8.60;99.90
22114;DHT22;11223;49.968;9.062;2023-11-21T00:30:43;8.60;99.90
22114;DHT22;11223;49.968;9.062;2023-11-21T00:33:08;8.60;99.90
22114;DHT22;11223;49.968;9.062;2023-11-21T00:35:34;8.60;99.90
22114;DHT22;11223;49.968;9.062;2023-11-21T00:37:59;8.60;99.90
22114;DHT22;11223;49.968;9.062;2023-11-21T00:40:25;8.60;99.90
22114;DHT22;11223;49.968;9.062;2023-11-21T00:42:50;8.70;99.90
22114;DHT22;11223;49.968;9.062;2023-11-21T00:45:15;8.60;99.90
22114;DHT22;11223;49.968;9.062;2023-11-21T00:47:41;8.60;99.90
22114;DHT22;11223;49.968;9.062;2023-11-21T00:50:07;8.60;99.90
22114;DHT22;11223;49.968;9.062;2023-11-21T00:52:33;8.60;99.90
22114;DHT22;11223;49.968;9.062;2023-11-21T00:54:59;8.60;99.90
22114;DHT22;11223;49.968;9.062;2023-11-21T00:57:26;8.60;99.90
22114;DHT22;11223;49.968;9.062;2023-11-21T00:59:51;8.60;99.90
22114;DHT22;11223;49.968;9.062;2023-11-21T01:02:16;8.60;99.90
22114;DHT22;11223;49.968;9.062;2023-11-21T01:04:42;8.60;99.90
22114;DHT22;11223;49.968;9.062;2023-11-21T01:07:08;8.60;99.90
22114;DHT22;11223;49.968;9.062;2023-11-21T01:09:34;8.60;99.90
22114;DHT22;11223;49.968;9.062;2023-11-21T01:12:00;8.60;99.90
22114;DHT22;11223;49.968;9.062;2023-11-21T01:14:26;8.60;99.90
22114;DHT22;11223;49.968;9.062;2023-11-21T01:16:54;8.60;99.90
22114;DHT22;11223;49.968;9.062;2023-11-21T01:19:19;8.60;99.90
22114;DHT22;11223;49.968;9.062;2023-11-21T01:21:45;8.60;99.90
22114;DHT22;11223;49.968;9.062;2023-11-21T01:24:10;8.60;99.90
22114;DHT22;11223;49.968;9.062;2023-11-21T01:26:36;8.60;99.90
22114;DHT22;11223;49.968;9.062;2023-11-21T01:29:01;8.60;99.90
22114;DHT22;11223;49.968;9.062;2023-11-21T01:31:27;8.60;99.90
22114;DHT22;11223;49.968;9.062;2023-11-21T01:33:55;8.60;99.90
22114;DHT22;11223;49.968;9.062;2023-11-21T01:36:20;8.50;99.90
22114;DHT22;11223;49.968;9.062;2023-11-21T01:38:46;8.50;99.90
22114;DHT22;11223;49.968;9.062;2023-11-21T01:41:13;8.50;99.90
22114;DHT22;11223;49.968;9.062;2023-11-21T01:43:39;8.50;99.90
22114;DHT22;11223;49.968;9.062;2023-11-21T01:46:05;8.50;99.90
22114;DHT22;11223;49.968;9.062;2023-11-21T01:48:31;8.50;99.90
22114;DHT22;11223;49.968;9.062;2023-11-21T01:50:57;8.50;99.90
22114;DHT22;11223;49.968;9.062;2023-11-21T01:53:24;8.50;99.90
22114;DHT22;11223;49.968;9.062;2023-11-21T01:55:50;8.50;99.90
22114;DHT22;11223;49.968;9.062;2023-11-21T01:58:16;8.50;99.90
22114;DHT22;11223;49.968;9.062;2023-11-21T02:00:41;8.50;99.90
22114;DHT22;11223;49.968;9.062;2023-11-21T02:03:07;8.50;99.90
22114;DHT22;11223;49.968;9.062;2023-11-21T02:05:33;8.50;99.90
22114;DHT22;11223;49.968;9.062;2023-11-21T02:07:58;8.50;99.90
22114;DHT22;11223;49.968;9.062;2023-11-21T02:10:24;8.50;99.90
22114;DHT22;11223;49.968;9.062;2023-11-21T02:12:49;8.50;99.90
22114;DHT22;11223;49.968;9.062;2023-11-21T02:15:17;8.50;99.90
22114;DHT22;11223;49.968;9.062;2023-11-21T02:17:47;8.50;99.90
22114;DHT22;11223;49.968;9.062;2023-11-21T02:20:16;8.50;99.90
22114;DHT22;11223;49.968;9.062;2023-11-21T02:22:43;8.50;99.90
22114;DHT22;11223;49.968;9.062;2023-11-21T02:25:09;8.50;99.90
22114;DHT22;11223;49.968;9.062;2023-11-21T02:27:34;8.50;99.90
22114;DHT22;11223;49.968;9.062;2023-11-21T02:30:00;8.50;99.90
22114;DHT22;11223;49.968;9.062;2023-11-21T02:32:26;8.40;99.90
22114;DHT22;11223;49.968;9.062;2023-11-21T02:34:52;8.40;99.90
22114;DHT22;11223;49.968;9.062;2023-11-21T02:37:17;8.40;99.90
22114;DHT22;11223;49.968;9.062;2023-11-21T02:39:43;8.40;99.90
22114;DHT22;11223;49.968;9.062;2023-11-21T02:42:08;8.50;99.90
22114;DHT22;11223;49.968;9.062;2023-11-21T02:44:34;8.40;99.90
22114;DHT22;11223;49.968;9.062;2023-11-21T02:47:00;8.50;99.90
22114;DHT22;11223;49.968;9.062;2023-11-21T02:49:25;8.40;99.90
22114;DHT22;11223;49.968;9.062;2023-11-21T02:51:53;8.50;99.90
22114;DHT22;11223;49.968;9.062;2023-11-21T02:54:20;8.50;99.90
22114;DHT22;11223;49.968;9.062;2023-11-21T02:56:47;8.50;99.90
22114;DHT22;11223;49.968;9.062;2023-11-21T02:59:13;8.50;99.90
22114;DHT22;11223;49.968;9.062;2023-11-21T03:01:38;8.50;99.90
22114;DHT22;11223;49.968;9.062;2023-11-21T03:04:04;8.50;99.90
22114;DHT22;11223;49.968;9.062;2023-11-21T03:06:29;8.40;99.90
22114;DHT22;11223;49.968;9.062;2023-11-21T03:08:55;8.50;99.90
22114;DHT22;11223;49.968;9.062;2023-11-21T03:11:20;8.40;99.90
22114;DHT22;11223;49.968;9.062;2023-11-21T03:13:46;8.50;99.90
22114;DHT22;11223;49.968;9.062;2023-11-21T03:16:11;8.50;99.90
22114;DHT22;11223;49.968;9.062;2023-11-21T03:18:40;8.50;99.90
22114;DHT22;11223;49.968;9.062;2023-11-21T03:21:06;8.50;99.90
22114;DHT22;11223;49.968;9.062;2023-11-21T03:23:34;8.50;99.90
22114;DHT22;11223;49.968;9.062;2023-11-21T03:25:59;8.50;99.90
22114;DHT22;11223;49.968;9.062;2023-11-21T03:28:25;8.40;99.90
22114;DHT22;11223;49.968;9.062;2023-11-21T03:30:52;8.50;99.90
22114;DHT22;11223;49.968;9.062;2023-11-21T03:33:17;8.40;99.90
22114;DHT22;11223;49.968;9.062;2023-11-21T03:35:43;8.40;99.90
22114;DHT22;11223;49.968;9.062;2023-11-21T03:38:10;8.40;99.90
22114;DHT22;11223;49.968;9.062;2023-11-21T03:40:36;8.40;99.90
22114;DHT22;11223;49.968;9.062;2023-11-21T03:43:01;8.40;99.90
22114;DHT22;11223;49.968;9.062;2023-11-21T03:45:27;8.40;99.90
22114;DHT22;11223;49.968;9.062;2023-11-21T03:47:52;8.40;99.90
22114;DHT22;11223;49.968;9.062;2023-11-21T03:50:18;8.40;99.90
22114;DHT22;11223;49.968;9.062;2023-11-21T03:52:43;8.40;99.90
22114;DHT22;11223;49.968;9.062;2023-11-21T03:55:09;8.40;99.90
22114;DHT22;11223;49.968;9.062;2023-11-21T03:57:35;8.40;99.90
22114;DHT22;11223;49.968;9.062;2023-11-21T04:00:01;8.50;99.90
22114;DHT22;11223;49.968;9.062;2023-11-21T04:02:29;8.40;99.90
22114;DHT22;11223;49.968;9.062;2023-11-21T04:04:56;8.40;99.90
22114;DHT22;11223;49.968;9.062;2023-11-21T04:07:22;8.40;99.90
22114;DHT22;11223;49.968;9.062;2023-11-21T04:09:47;8.40;99.90
22114;DHT22;11223;49.968;9.062;2023-11-21T04:12:13;8.40;99.90
22114;DHT22;11223;49.968;9.062;2023-11-21T04:14:38;8.30;99.90
22114;DHT22;11223;49.968;9.062;2023-11-21T04:17:04;8.30;99.90
22114;DHT22;11223;49.968;9.062;2023-11-21T04:19:29;8.30;99.90
22114;DHT22;11223;49.968;9.062;2023-11-21T04:21:55;8.30;99.90
22114;DHT22;11223;49.968;9.062;2023-11-21T04:24:20;8.30;99.90
22114;DHT22;11223;49.968;9.062;2023-11-21T04:26:46;8.30;99.90
22114;DHT22;11223;49.968;9.062;2023-11-21T04:29:11;8.30;99.90
22114;DHT22;11223;49.968;9.062;2023-11-21T04:31:37;8.40;99.90
22114;DHT22;11223;49.968;9.062;2023-11-21T04:34:03;8.30;99.90
22114;DHT22;11223;49.968;9.062;2023-11-21T04:36:29;8.40;99.90
22114;DHT22;11223;49.968;9.062;2023-11-21T04:38:56;8.30;99.90
22114;DHT22;11223;49.968;9.062;2023-11-21T04:41:21;8.30;99.90
22114;DHT22;11223;49.968;9.062;2023-11-21T04:43:47;8.30;99.90
22114;DHT22;11223;49.968;9.062;2023-11-21T04:46:12;8.20;99.90
22114;DHT22;11223;49.968;9.062;2023-11-21T04:48:38;8.20;99.90
22114;DHT22;11223;49.968;9.062;2023-11-21T04:51:03;8.20;99.90
22114;DHT22;11223;49.968;9.062;2023-11-21T04:53:30;8.20;99.90
22114;DHT22;11223;49.968;9.062;2023-11-21T04:55:55;8.20;99.90
22114;DHT22;11223;49.968;9.062;2023-11-21T04:58:20;8.20;99.90
22114;DHT22;11223;49.968;9.062;2023-11-21T05:00:46;8.20;99.90
22114;DHT22;11223;49.968;9.062;2023-11-21T05:03:12;8.20;99.90
22114;DHT22;11223;49.968;9.062;2023-11-21T05:05:37;8.20;99.90
22114;DHT22;11223;49.968;9.062;2023-11-21T05:08:03;8.20;99.90
22114;DHT22;11223;49.968;9.062;2023-11-21T05:10:29;8.20;99.90
22114;DHT22;11223;49.968;9.062;2023-11-21T05:12:55;8.20;99.90
22114;DHT22;11223;49.968;9.062;2023-11-21T05:15:20;8.20;99.90
22114;DHT22;11223;49.968;9.062;2023-11-21T05:17:46;8.20;99.90
22114;DHT22;11223;49.968;9.062;2023-11-21T05:20:15;8.20;99.90
22114;DHT22;11223;49.968;9.062;2023-11-21T05:22:45;8.20;99.90
22114;DHT22;11223;49.968;9.062;2023-11-21T05:25:11;8.20;99.90
22114;DHT22;11223;49.968;9.062;2023-11-21T05:27:37;8.20;99.90
22114;DHT22;11223;49.968;9.062;2023-11-21T05:30:03;8.20;99.90
22114;DHT22;11223;49.968;9.062;2023-11-21T05:32:30;8.20;99.90
22114;DHT22;11223;49.968;9.062;2023-11-21T05:34:56;8.20;99.90
22114;DHT22;11223;49.968;9.062;2023-11-21T05:37:21;8.20;99.90
22114;DHT22;11223;49.968;9.062;2023-11-21T05:39:48;8.30;99.90
22114;DHT22;11223;49.968;9.062;2023-11-21T05:42:14;8.20;99.90
22114;DHT22;11223;49.968;9.062;2023-11-21T05:44:41;8.20;99.90
22114;DHT22;11223;49.968;9.062;2023-11-21T05:47:07;8.20;99.90
22114;DHT22;11223;49.968;9.062;2023-11-21T05:49:32;8.30;99.90
22114;DHT22;11223;49.968;9.062;2023-11-21T05:51:58;8.30;99.90
22114;DHT22;11223;49.968;9.062;2023-11-21T05:54:23;8.20;99.90
22114;DHT22;11223;49.968;9.062;2023-11-21T05:56:49;8.30;99.90
22114;DHT22;11223;49.968;9.062;2023-11-21T05:59:15;8.30;99.90
22114;DHT22;11223;49.968;9.062;2023-11-21T06:01:40;8.30;99.90
22114;DHT22;11223;49.968;9.062;2023-11-21T06:04:06;8.30;99.90
22114;DHT22;11223;49.968;9.062;2023-11-21T06:06:33;8.40;99.90
22114;DHT22;11223;49.968;9.062;2023-11-21T06:08:58;8.40;99.90
22114;DHT22;11223;49.968;9.062;2023-11-21T06:11:24;8.30;99.90
22114;DHT22;11223;49.968;9.062;2023-11-21T06:13:49;8.30;99.90
22114;DHT22;11223;49.968;9.062;2023-11-21T06:16:15;8.30;99.90
22114;DHT22;11223;49.968;9.062;2023-11-21T06:18:42;8.30;99.90
22114;DHT22;11223;49.968;9.062;2023-11-21T06:21:11;8.30;99.90
22114;DHT22;11223;49.968;9.062;2023-11-21T06:23:37;8.30;99.90
22114;DHT22;11223;49.968;9.062;2023-11-21T06:26:02;8.30;99.90
22114;DHT22;11223;49.968;9.062;2023-11-21T06:28:29;8.30;99.90
22114;DHT22;11223;49.968;9.062;2023-11-21T06:30:55;8.30;99.90
22114;DHT22;11223;49.968;9.062;2023-11-21T06:33:21;8.30;99.90
22114;DHT22;11223;49.968;9.062;2023-11-21T06:35:47;8.30;99.90
22114;DHT22;11223;49.968;9.062;2023-11-21T06:38:12;8.40;99.90
22114;DHT22;11223;49.968;9.062;2023-11-21T06:40:38;8.30;99.90
22114;DHT22;11223;49.968;9.062;2023-11-21T06:43:03;8.30;99.90
22114;DHT22;11223;49.968;9.062;2023-11-21T06:45:30;8.30;99.90
22114;DHT22;11223;49.968;9.062;2023-11-21T06:47:55;8.40;99.90
22114;DHT22;11223;49.968;9.062;2023-11-21T06:50:21;8.40;99.90
22114;DHT22;11223;49.968;9.062;2023-11-21T06:52:46;8.40;99.90
22114;DHT22;11223;49.968;9.062;2023-11-21T06:55:12;8.30;99.90
22114;DHT22;11223;49.968;9.062;2023-11-21T06:57:38;8.40;99.90
22114;DHT22;11223;49.968;9.062;2023-11-21T07:00:05;8.40;99.90
22114;DHT22;11223;49.968;9.062;2023-11-21T07:02:31;8.40;99.90
22114;DHT22;11223;49.968;9.062;2023-11-21T07:04:56;8.40;99.90
22114;DHT22;11223;49.968;9.062;2023-11-21T07:07:22;8.50;99.90
22114;DHT22;11223;49.968;9.062;2023-11-21T07:09:48;8.50;99.90
22114;DHT22;11223;49.968;9.062;2023-11-21T07:12:14;8.50;99.90
22114;DHT22;11223;49.968;9.062;2023-11-21T07:14:39;8.50;99.90
22114;DHT22;11223;49.968;9.062;2023-11-21T07:17:08;8.60;99.90
22114;DHT22;11223;49.968;9.062;2023-11-21T07:19:34;8.60;99.90
22114;DHT22;11223;49.968;9.062;2023-11-21T07:21:59;8.60;99.90
22114;DHT22;11223;49.968;9.062;2023-11-21T07:24:25;8.60;99.90
22114;DHT22;11223;49.968;9.062;2023-11-21T07:26:50;8.60;99.90
22114;DHT22;11223;49.968;9.062;2023-11-21T07:29:16;8.60;99.90
22114;DHT22;11223;49.968;9.062;2023-11-21T07:31:41;8.60;99.90
22114;DHT22;11223;49.968;9.062;2023-11-21T07:34:07;8.60;99.90
22114;DHT22;11223;49.968;9.062;2023-11-21T07:36:33;8.60;99.90
22114;DHT22;11223;49.968;9.062;2023-11-21T07:38:59;8.60;99.90
22114;DHT22;11223;49.968;9.062;2023-11-21T07:41:24;8.70;99.90
22114;DHT22;11223;49.968;9.062;2023-11-21T07:43:50;8.70;99.90
22114;DHT22;11223;49.968;9.062;2023-11-21T07:46:15;8.70;99.90
22114;DHT22;11223;49.968;9.062;2023-11-21T07:48:41;8.70;99.90
22114;DHT22;11223;49.968;9.062;2023-11-21T07:51:11;8.70;99.90
22114;DHT22;11223;49.968;9.062;2023-11-21T07:53:38;8.80;99.90
22114;DHT22;11223;49.968;9.062;2023-11-21T07:56:04;8.80;99.90
22114;DHT22;11223;49.968;9.062;2023-11-21T07:58:30;8.80;99.90
22114;DHT22;11223;49.968;9.062;2023-11-21T08:00:56;8.80;99.90
22114;DHT22;11223;49.968;9.062;2023-11-21T08:03:21;8.80;99.90
22114;DHT22;11223;49.968;9.062;2023-11-21T08:05:47;8.90;99.90
22114;DHT22;11223;49.968;9.062;2023-11-21T08:08:12;8.90;99.90
22114;DHT22;11223;49.968;9.062;2023-11-21T08:10:38;8.90;99.90
22114;DHT22;11223;49.968;9.062;2023-11-21T08:13:07;8.90;99.90
22114;DHT22;11223;49.968;9.062;2023-11-21T08:15:34;9.00;99.90
22114;DHT22;11223;49.968;9.062;2023-11-21T08:18:02;9.10;99.90
22114;DHT22;11223;49.968;9.062;2023-11-21T08:20:27;9.10;99.90
22114;DHT22;11223;49.968;9.062;2023-11-21T08:22:53;9.10;99.90
22114;DHT22;11223;49.968;9.062;2023-11-21T08:25:20;9.20;99.90
22114;DHT22;11223;49.968;9.062;2023-11-21T08:27:46;9.20;99.90
22114;DHT22;11223;49.968;9.062;2023-11-21T08:30:12;9.30;99.90
22114;DHT22;11223;49.968;9.062;2023-11-21T08:32:39;9.40;99.90
22114;DHT22;11223;49.968;9.062;2023-11-21T08:35:05;9.40;99.90
22114;DHT22;11223;49.968;9.062;2023-11-21T08:37:31;9.50;99.90
22114;DHT22;11223;49.968;9.062;2023-11-21T08:39:58;9.50;99.90
22114;DHT22;11223;49.968;9.062;2023-11-21T08:42:25;9.50;99.90
22114;DHT22;11223;49.968;9.062;2023-11-21T08:44:50;9.50;99.90
22114;DHT22;11223;49.968;9.062;2023-11-21T08:47:16;9.50;99.90
22114;DHT22;11223;49.968;9.062;2023-11-21T08:49:41;9.50;99.90
22114;DHT22;11223;49.968;9.062;2023-11-21T08:52:07;9.50;99.90
22114;DHT22;11223;49.968;9.062;2023-11-21T08:54:33;9.50;99.90
22114;DHT22;11223;49.968;9.062;2023-11-21T08:56:59;9.50;99.90
22114;DHT22;11223;49.968;9.062;2023-11-21T08:59:25;9.50;99.90
22114;DHT22;11223;49.968;9.062;2023-11-21T09:01:51;9.50;99.90
22114;DHT22;11223;49.968;9.062;2023-11-21T09:04:17;9.60;99.90
22114;DHT22;11223;49.968;9.062;2023-11-21T09:06:42;9.60;99.90
22114;DHT22;11223;49.968;9.062;2023-11-21T09:09:08;9.70;99.90
22114;DHT22;11223;49.968;9.062;2023-11-21T09:11:35;9.70;99.90
22114;DHT22;11223;49.968;9.062;2023-11-21T09:14:01;9.80;99.90
22114;DHT22;11223;49.968;9.062;2023-11-21T09:16:27;9.90;99.90
22114;DHT22;11223;49.968;9.062;2023-11-21T09:18:52;9.90;99.90
22114;DHT22;11223;49.968;9.062;2023-11-21T09:21:17;9.90;99.90
22114;DHT22;11223;49.968;9.062;2023-11-21T09:23:46;10.00;99.90
22114;DHT22;11223;49.968;9.062;2023-11-21T09:26:12;10.00;99.90
22114;DHT22;11223;49.968;9.062;2023-11-21T09:28:37;10.00;99.90
22114;DHT22;11223;49.968;9.062;2023-11-21T09:31:04;10.00;99.90
22114;DHT22;11223;49.968;9.062;2023-11-21T09:33:33;10.00;99.90
22114;DHT22;11223;49.968;9.062;2023-11-21T09:35:59;10.00;99.90
22114;DHT22;11223;49.968;9.062;2023-11-21T09:38:25;10.00;99.90
22114;DHT22;11223;49.968;9.062;2023-11-21T09:40:50;10.00;99.90
22114;DHT22;11223;49.968;9.062;2023-11-21T09:43:18;10.00;99.90
22114;DHT22;11223;49.968;9.062;2023-11-21T09:45:47;9.90;99.90
22114;DHT22;11223;49.968;9.062;2023-11-21T09:48:13;9.90;99.90
22114;DHT22;11223;49.968;9.062;2023-11-21T09:50:41;10.00;99.90
22114;DHT22;11223;49.968;9.062;2023-11-21T09:55:45;10.00;99.90
22114;DHT22;11223;49.968;9.062;2023-11-21T09:58:11;10.00;99.90
22114;DHT22;11223;49.968;9.062;2023-11-21T10:00:41;10.10;99.90
22114;DHT22;11223;49.968;9.062;2023-11-21T10:03:08;10.10;99.90
22114;DHT22;11223;49.968;9.062;2023-11-21T10:05:34;10.10;99.90
22114;DHT22;11223;49.968;9.062;2023-11-21T10:07:59;10.10;99.90
22114;DHT22;11223;49.968;9.062;2023-11-21T10:10:26;10.20;99.90
22114;DHT22;11223;49.968;9.062;2023-11-21T10:12:57;10.20;99.90
22114;DHT22;11223;49.968;9.062;2023-11-21T10:15:22;10.30;99.90
22114;DHT22;11223;49.968;9.062;2023-11-21T10:17:48;10.30;99.90
22114;DHT22;11223;49.968;9.062;2023-11-21T10:20:14;10.30;99.90
22114;DHT22;11223;49.968;9.062;2023-11-21T10:22:41;10.30;99.90
22114;DHT22;11223;49.968;9.062;2023-11-21T10:25:07;10.40;99.90
22114;DHT22;11223;49.968;9.062;2023-11-21T10:27:34;10.50;99.90
22114;DHT22;11223;49.968;9.062;2023-11-21T10:30:02;10.50;99.90
22114;DHT22;11223;49.968;9.062;2023-11-21T10:32:29;10.60;99.90
22114;DHT22;11223;49.968;9.062;2023-11-21T10:34:58;10.60;99.90
22114;DHT22;11223;49.968;9.062;2023-11-21T10:37:25;10.60;99.90
22114;DHT22;11223;49.968;9.062;2023-11-21T10:39:59;10.70;99.90
22114;DHT22;11223;49.968;9.062;2023-11-21T10:42:24;10.70;99.90
22114;DHT22;11223;49.968;9.062;2023-11-21T10:44:50;10.90;99.90
22114;DHT22;11223;49.968;9.062;2023-11-21T10:47:16;10.90;99.90
22114;DHT22;11223;49.968;9.062;2023-11-21T10:49:44;10.90;99.90
22114;DHT22;11223;49.968;9.062;2023-11-21T10:52:10;10.90;99.90
22114;DHT22;11223;49.968;9.062;2023-11-21T10:54:45;10.80;99.90
22114;DHT22;11223;49.968;9.062;2023-11-21T10:57:10;10.80;99.90
22114;DHT22;11223;49.968;9.062;2023-11-21T10:59:40;10.70;99.90
22114;DHT22;11223;49.968;9.062;2023-11-21T11:02:27;10.70;99.90
22114;DHT22;11223;49.968;9.062;2023-11-21T11:04:57;10.70;99.90
22114;DHT22;11223;49.968;9.062;2023-11-21T11:07:25;10.60;99.90
22114;DHT22;11223;49.968;9.062;2023-11-21T11:09:52;10.60;99.90
22114;DHT22;11223;49.968;9.062;2023-11-21T11:12:18;10.50;99.90
22114;DHT22;11223;49.968;9.062;2023-11-21T11:14:44;10.40;99.90
22114;DHT22;11223;49.968;9.062;2023-11-21T11:17:10;10.40;99.90
22114;DHT22;11223;49.968;9.062;2023-11-21T11:19:36;10.30;99.90
22114;DHT22;11223;49.968;9.062;2023-11-21T11:32:37;10.20;99.90
22114;DHT22;11223;49.968;9.062;2023-11-21T11:35:17;10.10;99.90
22114;DHT22;11223;49.968;9.062;2023-11-21T11:37:43;10.10;99.90
22114;DHT22;11223;49.968;9.062;2023-11-21T11:40:10;10.10;99.90
22114;DHT22;11223;49.968;9.062;2023-11-21T11:42:36;10.20;99.90
22114;DHT22;11223;49.968;9.062;2023-11-21T11:45:02;10.40;99.90
22114;DHT22;11223;49.968;9.062;2023-11-21T11:47:42;10.60;99.90
22114;DHT22;11223;49.968;9.062;2023-11-21T11:50:12;10.90;99.90
22114;DHT22;11223;49.968;9.062;2023-11-21T11:52:48;11.00;99.90
22114;DHT22;11223;49.968;9.062;2023-11-21T11:55:19;11.20;99.90
22114;DHT22;11223;49.968;9.062;2023-11-21T11:57:46;11.30;99.90
22114;DHT22;11223;49.968;9.062;2023-11-21T12:00:21;11.40;99.90
22114;DHT22;11223;49.968;9.062;2023-11-21T12:02:53;11.50;99.90
22114;DHT22;11223;49.968;9.062;2023-11-21T12:05:22;11.50;99.90
22114;DHT22;11223;49.968;9.062;2023-11-21T12:07:57;11.50;99.90
22114;DHT22;11223;49.968;9.062;2023-11-21T12:10:24;11.50;99.90
22114;DHT22;11223;49.968;9.062;2023-11-21T12:13:11;11.50;99.90
22114;DHT22;11223;49.968;9.062;2023-11-21T12:15:37;11.60;99.90
22114;DHT22;11223;49.968;9.062;2023-11-21T12:18:03;11.60;99.90
22114;DHT22;11223;49.968;9.062;2023-11-21T12:20:29;11.60;99.90
22114;DHT22;11223;49.968;9.062;2023-11-21T12:22:59;11.50;99.90
22114;DHT22;11223;49.968;9.062;2023-11-21T12:25:25;11.40;99.90
22114;DHT22;11223;49.968;9.062;2023-11-21T12:27:54;11.40;99.90
22114;DHT22;11223;49.968;9.062;2023-11-21T12:30:21;11.40;99.90
22114;DHT22;11223;49.968;9.062;2023-11-21T12:32:50;11.30;99.90
22114;DHT22;11223;49.968;9.062;2023-11-21T12:35:17;11.30;99.90
22114;DHT22;11223;49.968;9.062;2023-11-21T12:37:44;11.30;99.90
22114;DHT22;11223;49.968;9.062;2023-11-21T12:40:10;11.30;99.90
22114;DHT22;11223;49.968;9.062;2023-11-21T12:42:41;11.30;99.90
22114;DHT22;11223;49.968;9.062;2023-11-21T12:45:10;11.30;99.90
22114;DHT22;11223;49.968;9.062;2023-11-21T12:47:43;11.30;99.90
22114;DHT22;11223;49.968;9.062;2023-11-21T12:50:10;11.30;99.90
22114;DHT22;11223;49.968;9.062;2023-11-21T12:52:42;11.30;99.90
22114;DHT22;11223;49.968;9.062;2023-11-21T12:55:09;11.30;99.90
22114;DHT22;11223;49.968;9.062;2023-11-21T12:57:35;11.30;99.90
22114;DHT22;11223;49.968;9.062;2023-11-21T13:00:03;11.30;99.90
22114;DHT22;11223;49.968;9.062;2023-11-21T13:02:36;11.30;99.90
22114;DHT22;11223;49.968;9.062;2023-11-21T13:05:03;11.20;99.90
22114;DHT22;11223;49.968;9.062;2023-11-21T13:07:40;11.20;99.90
22114;DHT22;11223;49.968;9.062;2023-11-21T13:10:14;11.20;99.90
22114;DHT22;11223;49.968;9.062;2023-11-21T13:12:44;11.10;99.90
22114;DHT22;11223;49.968;9.062;2023-11-21T13:15:16;11.10;99.90
22114;DHT22;11223;49.968;9.062;2023-11-21T13:17:45;11.00;99.90
22114;DHT22;11223;49.968;9.062;2023-11-21T13:20:11;11.00;99.90
22114;DHT22;11223;49.968;9.062;2023-11-21T13:22:51;11.00;99.90
22114;DHT22;11223;49.968;9.062;2023-11-21T13:25:21;10.90;99.90
22114;DHT22;11223;49.968;9.062;2023-11-21T13:27:47;10.80;99.90
22114;DHT22;11223;49.968;9.062;2023-11-21T13:30:13;10.80;99.90
22114;DHT22;11223;49.968;9.062;2023-11-21T13:32:44;10.80;99.90
22114;DHT22;11223;49.968;9.062;2023-11-21T13:35:16;10.70;99.90
22114;DHT22;11223;49.968;9.062;2023-11-21T13:37:56;10.60;99.90
22114;DHT22;11223;49.968;9.062;2023-11-21T13:40:22;10.50;99.90
22114;DHT22;11223;49.968;9.062;2023-11-21T13:42:55;10.40;99.90
22114;DHT22;11223;49.968;9.062;2023-11-21T13:45:25;10.40;99.90
22114;DHT22;11223;49.968;9.062;2023-11-21T13:47:51;10.30;99.90
22114;DHT22;11223;49.968;9.062;2023-11-21T13:50:18;10.20;99.90
22114;DHT22;11223;49.968;9.062;2023-11-21T13:52:48;10.20;99.90
22114;DHT22;11223;49.968;9.062;2023-11-21T13:55:14;10.10;99.90
22114;DHT22;11223;49.968;9.062;2023-11-21T13:57:42;10.10;99.90
22114;DHT22;11223;49.968;9.062;2023-11-21T14:00:11;10.10;99.90
22114;DHT22;11223;49.968;9.062;2023-11-21T14:02:56;10.10;99.90
22114;DHT22;11223;49.968;9.062;2023-11-21T14:05:26;10.20;99.90
22114;DHT22;11223;49.968;9.062;2023-11-21T14:07:57;10.10;99.90
22114;DHT22;11223;49.968;9.062;2023-11-21T14:10:29;10.10;99.90
22114;DHT22;11223;49.968;9.062;2023-11-21T14:13:05;10.10;99.90
22114;DHT22;11223;49.968;9.062;2023-11-21T14:15:31;10.10;99.90
22114;DHT22;11223;49.968;9.062;2023-11-21T14:17:58;10.10;99.90
22114;DHT22;11223;49.968;9.062;2023-11-21T14:20:25;10.10;99.90
22114;DHT22;11223;49.968;9.062;2023-11-21T14:22:50;10.10;99.90
22114;DHT22;11223;49.968;9.062;2023-11-21T14:25:16;10.00;99.90
22114;DHT22;11223;49.968;9.062;2023-11-21T14:27:43;10.00;99.90
22114;DHT22;11223;49.968;9.062;2023-11-21T14:30:08;10.00;99.90
22114;DHT22;11223;49.968;9.062;2023-11-21T14:32:37;10.00;99.90
22114;DHT22;11223;49.968;9.062;2023-11-21T14:35:03;9.90;99.90
22114;DHT22;11223;49.968;9.062;2023-11-21T14:37:29;9.90;99.90
22114;DHT22;11223;49.968;9.062;2023-11-21T14:39:54;9.90;99.90
22114;DHT22;11223;49.968;9.062;2023-11-21T14:42:20;9.80;99.90
22114;DHT22;11223;49.968;9.062;2023-11-21T14:44:50;9.80;99.90
22114;DHT22;11223;49.968;9.062;2023-11-21T14:47:17;9.70;99.90
22114;DHT22;11223;49.968;9.062;2023-11-21T14:49:46;9.70;99.90
22114;DHT22;11223;49.968;9.062;2023-11-21T14:52:19;9.60;99.90
22114;DHT22;11223;49.968;9.062;2023-11-21T14:55:02;9.60;99.90
22114;DHT22;11223;49.968;9.062;2023-11-21T14:57:46;9.60;99.90
22114;DHT22;11223;49.968;9.062;2023-11-21T15:00:15;9.60;99.90
22114;DHT22;11223;49.968;9.062;2023-11-21T15:03:04;9.60;99.90
22114;DHT22;11223;49.968;9.062;2023-11-21T15:05:30;9.60;99.90
22114;DHT22;11223;49.968;9.062;2023-11-21T15:07:56;9.60;99.90
22114;DHT22;11223;49.968;9.062;2023-11-21T15:10:26;9.50;99.90
22114;DHT22;11223;49.968;9.062;2023-11-21T15:13:04;9.50;99.90
22114;DHT22;11223;49.968;9.062;2023-11-21T15:15:30;9.40;99.90
22114;DHT22;11223;49.968;9.062;2023-11-21T15:17:58;9.40;99.90
22114;DHT22;11223;49.968;9.062;2023-11-21T15:20:23;9.30;99.90
22114;DHT22;11223;49.968;9.062;2023-11-21T15:22:51;9.30;99.90
22114;DHT22;11223;49.968;9.062;2023-11-21T15:25:17;9.20;99.90
22114;DHT22;11223;49.968;9.062;2023-11-21T15:27:42;9.20;99.90
22114;DHT22;11223;49.968;9.062;2023-11-21T15:30:08;9.20;99.90
22114;DHT22;11223;49.968;9.062;2023-11-21T15:32:33;9.10;99.90
22114;DHT22;11223;49.968;9.062;2023-11-21T15:34:59;9.10;99.90
22114;DHT22;11223;49.968;9.062;2023-11-21T15:37:24;9.00;99.90
22114;DHT22;11223;49.968;9.062;2023-11-21T15:39:52;9.00;99.90
22114;DHT22;11223;49.968;9.062;2023-11-21T15:42:18;9.00;99.90
22114;DHT22;11223;49.968;9.062;2023-11-21T15:44:43;8.90;99.90
22114;DHT22;11223;49.968;9.062;2023-11-21T15:47:09;8.90;99.90
22114;DHT22;11223;49.968;9.062;2023-11-21T15:49:35;8.90;99.90
22114;DHT22;11223;49.968;9.062;2023-11-21T15:52:02;8.90;99.90
22114;DHT22;11223;49.968;9.062;2023-11-21T15:54:28;8.90;99.90